RYR492F EBCI-LOWW
Flight info
| Callsign | RYR492F |
|---|---|
| Flight time | N/A |
| Altitude | 35000 |
| Route | SOPOK Y863 OGLOR DCT EMGOD DCT BOMBI DCT BOREP DCT ENITA DCT ETVIS DCT BUDEX BUDEX2W |
| Aircraft | A320/M-SDE3FGHIRWY/LB1 |
Departure
| Time | N/A |
|---|---|
| Airport | Brussels South Charleroi Airport (EBCI) |
Arrival
| Time | 2026-05-07 18:43 |
|---|---|
| Airport | Vienna International Airport (LOWW) |
| Time | Latitude | Longitude | Altitude | Speed | Heading |
|---|---|---|---|---|---|
| 2026-05-07 17:44 | 50.02614 | 9.48128 | 35035 ft | 455 kts | 95° |
| 2026-05-07 17:44 | 50.01652 | 9.68071 | 35062 ft | 457 kts | 94° |
| 2026-05-07 17:45 | 50.01195 | 9.77668 | 35059 ft | 456 kts | 94° |
| 2026-05-07 17:45 | 50.00700 | 9.87490 | 35059 ft | 456 kts | 95° |
| 2026-05-07 17:46 | 50.00187 | 9.97327 | 35060 ft | 456 kts | 95° |
| 2026-05-07 17:46 | 49.99673 | 10.07146 | 35057 ft | 456 kts | 95° |
| 2026-05-07 17:47 | 49.99154 | 10.16960 | 35058 ft | 456 kts | 95° |
| 2026-05-07 17:47 | 49.98603 | 10.26789 | 35051 ft | 456 kts | 98° |
| 2026-05-07 17:48 | 49.97552 | 10.36499 | 35050 ft | 456 kts | 101° |
| 2026-05-07 17:48 | 49.96372 | 10.46167 | 35050 ft | 456 kts | 101° |
| 2026-05-07 17:49 | 49.95172 | 10.55839 | 35048 ft | 456 kts | 101° |
| 2026-05-07 17:49 | 49.93986 | 10.65514 | 35045 ft | 456 kts | 101° |
| 2026-05-07 17:50 | 49.92803 | 10.75172 | 35045 ft | 456 kts | 101° |
| 2026-05-07 17:50 | 49.91614 | 10.84858 | 35046 ft | 456 kts | 101° |
| 2026-05-07 17:51 | 49.90411 | 10.94538 | 35048 ft | 456 kts | 101° |
| 2026-05-07 17:51 | 49.89196 | 11.04215 | 35034 ft | 457 kts | 102° |
| 2026-05-07 17:52 | 49.87971 | 11.13883 | 35029 ft | 458 kts | 102° |
| 2026-05-07 17:52 | 49.86735 | 11.23579 | 35030 ft | 458 kts | 102° |
| 2026-05-07 17:53 | 49.85498 | 11.33269 | 35032 ft | 458 kts | 102° |
| 2026-05-07 17:53 | 49.84244 | 11.42972 | 35031 ft | 459 kts | 102° |
| 2026-05-07 17:54 | 49.82991 | 11.52595 | 35023 ft | 459 kts | 102° |
| 2026-05-07 17:54 | 49.81721 | 11.62339 | 35017 ft | 459 kts | 102° |
| 2026-05-07 17:55 | 49.80457 | 11.71957 | 35012 ft | 459 kts | 102° |
| 2026-05-07 17:55 | 49.79168 | 11.81650 | 35009 ft | 460 kts | 102° |
| 2026-05-07 17:56 | 49.77875 | 11.91348 | 35005 ft | 460 kts | 103° |
| 2026-05-07 17:56 | 49.76577 | 12.01048 | 35008 ft | 460 kts | 103° |
| 2026-05-07 17:57 | 49.75478 | 12.09161 | 35008 ft | 460 kts | 103° |
| 2026-05-07 17:57 | 49.73933 | 12.20429 | 35028 ft | 461 kts | 103° |
| 2026-05-07 17:58 | 49.72602 | 12.30107 | 35023 ft | 461 kts | 103° |
| 2026-05-07 17:58 | 49.71271 | 12.39795 | 35022 ft | 461 kts | 103° |
| 2026-05-07 17:59 | 49.69929 | 12.49481 | 35021 ft | 461 kts | 103° |
| 2026-05-07 17:59 | 49.68583 | 12.59152 | 35018 ft | 461 kts | 103° |
| 2026-05-07 18:00 | 49.67218 | 12.68831 | 35021 ft | 461 kts | 103° |
| 2026-05-07 18:00 | 49.65758 | 12.78454 | 35013 ft | 460 kts | 110° |
| 2026-05-07 18:01 | 49.62937 | 12.87202 | 35013 ft | 454 kts | 127° |
| 2026-05-07 18:01 | 49.59308 | 12.95184 | 35019 ft | 455 kts | 127° |
| 2026-05-07 18:02 | 49.53857 | 13.07166 | 35017 ft | 456 kts | 127° |
| 2026-05-07 18:03 | 49.50215 | 13.15159 | 35017 ft | 456 kts | 127° |
| 2026-05-07 18:03 | 49.46562 | 13.23143 | 35021 ft | 456 kts | 127° |
| 2026-05-07 18:04 | 49.42904 | 13.31116 | 35024 ft | 456 kts | 127° |
| 2026-05-07 18:04 | 49.39234 | 13.39066 | 35013 ft | 456 kts | 128° |
| 2026-05-07 18:05 | 49.35594 | 13.46949 | 34285 ft | 456 kts | 128° |
| 2026-05-07 18:05 | 49.33756 | 13.50917 | 33601 ft | 455 kts | 128° |
| 2026-05-07 18:05 | 49.31930 | 13.54855 | 33052 ft | 450 kts | 128° |
| 2026-05-07 18:05 | 49.30123 | 13.58746 | 32503 ft | 446 kts | 128° |
| 2026-05-07 18:06 | 49.28333 | 13.62593 | 31967 ft | 442 kts | 128° |
| 2026-05-07 18:06 | 49.26554 | 13.66415 | 31455 ft | 438 kts | 127° |
| 2026-05-07 18:06 | 49.24791 | 13.70199 | 31096 ft | 435 kts | 127° |
| 2026-05-07 18:07 | 49.21267 | 13.77736 | 31038 ft | 436 kts | 128° |
| 2026-05-07 18:07 | 49.17734 | 13.85266 | 31034 ft | 436 kts | 128° |
| 2026-05-07 18:08 | 49.14203 | 13.92778 | 31032 ft | 435 kts | 128° |
| 2026-05-07 18:08 | 49.10667 | 14.00278 | 31032 ft | 435 kts | 128° |
| 2026-05-07 18:09 | 49.07125 | 14.07776 | 31040 ft | 436 kts | 128° |
| 2026-05-07 18:09 | 49.03576 | 14.15273 | 31034 ft | 436 kts | 128° |
| 2026-05-07 18:10 | 49.00045 | 14.22714 | 31020 ft | 435 kts | 129° |
| 2026-05-07 18:10 | 48.96509 | 14.30117 | 31032 ft | 431 kts | 129° |
| 2026-05-07 18:11 | 48.92956 | 14.37465 | 31020 ft | 430 kts | 130° |
| 2026-05-07 18:11 | 48.89309 | 14.44695 | 30348 ft | 432 kts | 131° |
| 2026-05-07 18:11 | 48.87474 | 14.48284 | 29788 ft | 429 kts | 131° |
| 2026-05-07 18:12 | 48.85650 | 14.51851 | 29267 ft | 424 kts | 131° |
| 2026-05-07 18:12 | 48.83860 | 14.55363 | 28754 ft | 419 kts | 131° |
| 2026-05-07 18:12 | 48.82081 | 14.58866 | 28246 ft | 414 kts | 132° |
| 2026-05-07 18:12 | 48.80335 | 14.62310 | 27761 ft | 409 kts | 131° |
| 2026-05-07 18:13 | 48.78611 | 14.65706 | 27281 ft | 405 kts | 131° |
| 2026-05-07 18:13 | 48.76899 | 14.69070 | 26811 ft | 401 kts | 131° |
| 2026-05-07 18:13 | 48.75198 | 14.72406 | 26360 ft | 397 kts | 131° |
| 2026-05-07 18:13 | 48.73510 | 14.75705 | 25911 ft | 394 kts | 131° |
| 2026-05-07 18:14 | 48.71836 | 14.78973 | 25465 ft | 392 kts | 131° |
| 2026-05-07 18:14 | 48.70170 | 14.82226 | 25025 ft | 389 kts | 131° |
| 2026-05-07 18:14 | 48.68538 | 14.85413 | 24584 ft | 386 kts | 131° |
| 2026-05-07 18:14 | 48.66895 | 14.88617 | 24144 ft | 384 kts | 131° |
| 2026-05-07 18:15 | 48.65262 | 14.91797 | 23690 ft | 382 kts | 131° |
| 2026-05-07 18:15 | 48.63630 | 14.94959 | 23173 ft | 380 kts | 131° |
| 2026-05-07 18:15 | 48.61992 | 14.98128 | 22735 ft | 376 kts | 131° |
| 2026-05-07 18:15 | 48.60415 | 15.01201 | 22281 ft | 374 kts | 129° |
| 2026-05-07 18:16 | 48.59104 | 15.04643 | 21957 ft | 372 kts | 114° |
| 2026-05-07 18:16 | 48.58424 | 15.08310 | 21858 ft | 362 kts | 105° |
| 2026-05-07 18:16 | 48.57871 | 15.11973 | 21770 ft | 355 kts | 105° |
| 2026-05-07 18:16 | 48.57324 | 15.15610 | 21539 ft | 357 kts | 105° |
| 2026-05-07 18:17 | 48.56777 | 15.19258 | 21100 ft | 355 kts | 105° |
| 2026-05-07 18:17 | 48.56229 | 15.22939 | 20640 ft | 355 kts | 105° |
| 2026-05-07 18:17 | 48.55697 | 15.26531 | 20205 ft | 354 kts | 105° |
| 2026-05-07 18:17 | 48.55160 | 15.30159 | 19761 ft | 354 kts | 105° |
| 2026-05-07 18:18 | 48.54623 | 15.33779 | 19306 ft | 354 kts | 105° |
| 2026-05-07 18:18 | 48.54084 | 15.37400 | 18874 ft | 354 kts | 104° |
| 2026-05-07 18:18 | 48.53542 | 15.41015 | 18425 ft | 354 kts | 104° |
| 2026-05-07 18:18 | 48.52998 | 15.44644 | 17943 ft | 354 kts | 104° |
| 2026-05-07 18:19 | 48.52456 | 15.48259 | 17497 ft | 353 kts | 104° |
| 2026-05-07 18:19 | 48.51913 | 15.51869 | 17056 ft | 352 kts | 104° |
| 2026-05-07 18:19 | 48.51371 | 15.55456 | 16631 ft | 350 kts | 104° |
| 2026-05-07 18:19 | 48.50828 | 15.59033 | 16194 ft | 349 kts | 104° |
| 2026-05-07 18:20 | 48.50286 | 15.62601 | 15773 ft | 349 kts | 104° |
| 2026-05-07 18:20 | 48.49744 | 15.66165 | 15335 ft | 348 kts | 104° |
| 2026-05-07 18:20 | 48.49203 | 15.69713 | 14915 ft | 348 kts | 104° |
| 2026-05-07 18:20 | 48.48660 | 15.73260 | 14479 ft | 347 kts | 104° |
| 2026-05-07 18:21 | 48.48118 | 15.76799 | 14062 ft | 347 kts | 104° |
| 2026-05-07 18:21 | 48.47579 | 15.80310 | 13602 ft | 347 kts | 104° |
| 2026-05-07 18:21 | 48.47030 | 15.83896 | 13153 ft | 345 kts | 104° |
| 2026-05-07 18:21 | 48.46498 | 15.87363 | 12722 ft | 344 kts | 104° |
| 2026-05-07 18:22 | 48.45959 | 15.90861 | 12286 ft | 342 kts | 104° |
| 2026-05-07 18:22 | 48.45778 | 15.92034 | 12132 ft | 341 kts | 104° |
| 2026-05-07 18:22 | 48.44882 | 15.97800 | 11408 ft | 338 kts | 104° |
| 2026-05-07 18:22 | 48.44346 | 16.01238 | 10963 ft | 337 kts | 104° |
| 2026-05-07 18:23 | 48.43811 | 16.04669 | 10521 ft | 335 kts | 104° |
| 2026-05-07 18:23 | 48.43277 | 16.08078 | 10140 ft | 332 kts | 104° |
| 2026-05-07 18:23 | 48.42757 | 16.11394 | 10015 ft | 320 kts | 104° |
| 2026-05-07 18:23 | 48.42257 | 16.14602 | 9884 ft | 309 kts | 103° |
| 2026-05-07 18:24 | 48.41769 | 16.17713 | 9572 ft | 303 kts | 103° |
| 2026-05-07 18:24 | 48.41286 | 16.20770 | 8887 ft | 299 kts | 103° |
| 2026-05-07 18:24 | 48.40805 | 16.23804 | 8224 ft | 297 kts | 103° |
| 2026-05-07 18:24 | 48.40327 | 16.26812 | 7549 ft | 295 kts | 103° |
| 2026-05-07 18:25 | 48.40006 | 16.28835 | 7175 ft | 290 kts | 103° |
| 2026-05-07 18:25 | 48.39544 | 16.31758 | 6577 ft | 287 kts | 103° |
| 2026-05-07 18:25 | 48.39081 | 16.34668 | 6072 ft | 278 kts | 103° |
| 2026-05-07 18:25 | 48.38649 | 16.37381 | 5998 ft | 254 kts | 103° |
| 2026-05-07 18:26 | 48.38248 | 16.39900 | 5938 ft | 249 kts | 103° |
| 2026-05-07 18:26 | 48.37842 | 16.42462 | 5827 ft | 248 kts | 104° |
| 2026-05-07 18:26 | 48.37275 | 16.44837 | 5695 ft | 241 kts | 121° |
| 2026-05-07 18:26 | 48.36242 | 16.46773 | 5491 ft | 232 kts | 142° |
| 2026-05-07 18:27 | 48.34895 | 16.48026 | 5238 ft | 225 kts | 162° |
| 2026-05-07 18:27 | 48.33411 | 16.48700 | 4959 ft | 222 kts | 167° |
| 2026-05-07 18:27 | 48.31933 | 16.49332 | 4644 ft | 219 kts | 167° |
| 2026-05-07 18:27 | 48.30502 | 16.49944 | 4385 ft | 210 kts | 167° |
| 2026-05-07 18:28 | 48.29113 | 16.50537 | 4081 ft | 205 kts | 168° |
| 2026-05-07 18:28 | 48.27771 | 16.51109 | 3812 ft | 200 kts | 165° |
| 2026-05-07 18:28 | 48.26447 | 16.51672 | 3550 ft | 195 kts | 166° |
| 2026-05-07 18:28 | 48.25156 | 16.52222 | 3296 ft | 191 kts | 166° |
| 2026-05-07 18:29 | 48.23895 | 16.52758 | 3043 ft | 187 kts | 166° |
| 2026-05-07 18:29 | 48.22657 | 16.53285 | 2793 ft | 183 kts | 166° |
| 2026-05-07 18:29 | 48.21443 | 16.53800 | 2546 ft | 179 kts | 166° |
| 2026-05-07 18:29 | 48.20275 | 16.54298 | 2320 ft | 169 kts | 166° |
| 2026-05-07 18:30 | 48.19162 | 16.54770 | 2090 ft | 164 kts | 166° |
| 2026-05-07 18:30 | 48.18112 | 16.55216 | 1894 ft | 150 kts | 166° |
| 2026-05-07 18:30 | 48.17136 | 16.55630 | 1693 ft | 143 kts | 166° |
| 2026-05-07 18:30 | 48.16189 | 16.56032 | 1491 ft | 139 kts | 166° |
| 2026-05-07 18:31 | 48.15254 | 16.56428 | 1308 ft | 140 kts | 167° |
| 2026-05-07 18:31 | 48.14323 | 16.56822 | 1127 ft | 138 kts | 167° |
| 2026-05-07 18:31 | 48.13399 | 16.57216 | 946 ft | 138 kts | 170° |
| 2026-05-07 18:31 | 48.12488 | 16.57602 | 759 ft | 138 kts | 170° |
| 2026-05-07 18:32 | 48.11564 | 16.57989 | 617 ft | 127 kts | 167° |
| 2026-05-07 18:32 | 48.10817 | 16.58221 | 621 ft | 101 kts | 175° |
| 2026-05-07 18:32 | 48.09941 | 16.58295 | 861 ft | 135 kts | 183° |
| 2026-05-07 18:32 | 48.09019 | 16.58522 | 1664 ft | 138 kts | 171° |
| 2026-05-07 18:33 | 48.08064 | 16.58812 | 2187 ft | 144 kts | 168° |
| 2026-05-07 18:33 | 48.07039 | 16.59153 | 2461 ft | 161 kts | 167° |
| 2026-05-07 18:33 | 48.05856 | 16.59552 | 2632 ft | 186 kts | 167° |
| 2026-05-07 18:33 | 48.04539 | 16.60003 | 2933 ft | 204 kts | 162° |
| 2026-05-07 18:34 | 48.03319 | 16.61242 | 3194 ft | 225 kts | 126° |
| 2026-05-07 18:34 | 48.02767 | 16.63414 | 3836 ft | 228 kts | 91° |
| 2026-05-07 18:34 | 48.03097 | 16.65704 | 4582 ft | 228 kts | 58° |
| 2026-05-07 18:34 | 48.04181 | 16.67438 | 4938 ft | 229 kts | 28° |
| 2026-05-07 18:35 | 48.05663 | 16.68162 | 5018 ft | 225 kts | 8° |
| 2026-05-07 18:35 | 48.07216 | 16.68491 | 5031 ft | 225 kts | 6° |
| 2026-05-07 18:35 | 48.08825 | 16.68768 | 5041 ft | 247 kts | 6° |
| 2026-05-07 18:35 | 48.10597 | 16.69072 | 5037 ft | 262 kts | 5° |
| 2026-05-07 18:36 | 48.12419 | 16.68924 | 5036 ft | 264 kts | 348° |
| 2026-05-07 18:36 | 48.14213 | 16.68318 | 5037 ft | 265 kts | 346° |
| 2026-05-07 18:36 | 48.16000 | 16.67665 | 5036 ft | 264 kts | 346° |
| 2026-05-07 18:36 | 48.17787 | 16.67008 | 5035 ft | 264 kts | 346° |
| 2026-05-07 18:37 | 48.19566 | 16.66358 | 4772 ft | 262 kts | 345° |
| 2026-05-07 18:37 | 48.21335 | 16.65715 | 4318 ft | 262 kts | 345° |
| 2026-05-07 18:37 | 48.23098 | 16.65079 | 3894 ft | 261 kts | 346° |
| 2026-05-07 18:37 | 48.24863 | 16.64444 | 3479 ft | 260 kts | 345° |
| 2026-05-07 18:38 | 48.26627 | 16.63820 | 3089 ft | 258 kts | 346° |
| 2026-05-07 18:38 | 48.28375 | 16.63207 | 3024 ft | 259 kts | 345° |
| 2026-05-07 18:38 | 48.30025 | 16.62251 | 3022 ft | 246 kts | 323° |
| 2026-05-07 18:38 | 48.31051 | 16.60382 | 3029 ft | 228 kts | 290° |
| 2026-05-07 18:39 | 48.31213 | 16.58131 | 3024 ft | 213 kts | 256° |
| 2026-05-07 18:39 | 48.30511 | 16.56255 | 3028 ft | 209 kts | 221° |
| 2026-05-07 18:39 | 48.29238 | 16.55251 | 3031 ft | 208 kts | 199° |
| 2026-05-07 18:39 | 48.27844 | 16.54655 | 3033 ft | 208 kts | 196° |
| 2026-05-07 18:40 | 48.26436 | 16.54117 | 3030 ft | 209 kts | 195° |
| 2026-05-07 18:40 | 48.25024 | 16.53577 | 3032 ft | 209 kts | 195° |
| 2026-05-07 18:40 | 48.23597 | 16.53124 | 2935 ft | 210 kts | 182° |
| 2026-05-07 18:40 | 48.22171 | 16.53475 | 2709 ft | 207 kts | 165° |
| 2026-05-07 18:41 | 48.20788 | 16.54071 | 2446 ft | 206 kts | 165° |
| 2026-05-07 18:41 | 48.19440 | 16.54650 | 2191 ft | 199 kts | 165° |
| 2026-05-07 18:41 | 48.18153 | 16.55199 | 1919 ft | 184 kts | 165° |
| 2026-05-07 18:41 | 48.16977 | 16.55698 | 1704 ft | 162 kts | 165° |
| 2026-05-07 18:42 | 48.15942 | 16.56137 | 1468 ft | 148 kts | 166° |
| 2026-05-07 18:42 | 48.14985 | 16.56542 | 1273 ft | 142 kts | 167° |
| 2026-05-07 18:42 | 48.14034 | 16.56946 | 1072 ft | 139 kts | 168° |
| 2026-05-07 18:42 | 48.13120 | 16.57334 | 865 ft | 138 kts | 169° |
| 2026-05-07 18:43 | 48.12188 | 16.57726 | 679 ft | 137 kts | 170° |
| 2026-05-07 18:43 | 48.11329 | 16.58083 | 619 ft | 108 kts | 161° |
| 2026-05-07 18:43 | 48.10759 | 16.58333 | 620 ft | 70 kts | 165° |
| 2026-05-07 18:43 | 48.10379 | 16.58474 | 615 ft | 38 kts | 177° |
| 2026-05-07 18:44 | 48.10196 | 16.58427 | 615 ft | 16 kts | 193° |
| 2026-05-07 18:44 | 48.10115 | 16.58339 | 612 ft | 14 kts | 266° |
| 2026-05-07 18:44 | 48.10179 | 16.58299 | 610 ft | 10 kts | 349° |
| 2026-05-07 18:44 | 48.10240 | 16.58275 | 623 ft | 8 kts | 343° |
| 2026-05-07 18:45 | 48.10311 | 16.58243 | 624 ft | 14 kts | 344° |
| 2026-05-07 18:45 | 48.10432 | 16.58190 | 613 ft | 20 kts | 343° |
| 2026-05-07 18:45 | 48.10573 | 16.58132 | 615 ft | 22 kts | 345° |
| 2026-05-07 18:45 | 48.10727 | 16.58073 | 620 ft | 24 kts | 345° |
| 2026-05-07 18:46 | 48.10889 | 16.58002 | 624 ft | 25 kts | 342° |
| 2026-05-07 18:46 | 48.11062 | 16.57926 | 615 ft | 27 kts | 344° |
| 2026-05-07 18:46 | 48.11155 | 16.57715 | 617 ft | 25 kts | 295° |
| 2026-05-07 18:46 | 48.11234 | 16.57478 | 614 ft | 26 kts | 297° |
| 2026-05-07 18:47 | 48.11315 | 16.57234 | 621 ft | 26 kts | 295° |
| 2026-05-07 18:47 | 48.11395 | 16.56987 | 615 ft | 27 kts | 296° |
| 2026-05-07 18:47 | 48.11477 | 16.56741 | 618 ft | 26 kts | 297° |
| 2026-05-07 18:47 | 48.11554 | 16.56501 | 616 ft | 25 kts | 296° |
| 2026-05-07 18:48 | 48.11629 | 16.56274 | 617 ft | 24 kts | 296° |
| 2026-05-07 18:48 | 48.11702 | 16.56054 | 612 ft | 23 kts | 296° |
| 2026-05-07 18:48 | 48.11771 | 16.55839 | 622 ft | 22 kts | 296° |
| 2026-05-07 18:48 | 48.11837 | 16.55632 | 619 ft | 22 kts | 296° |
| 2026-05-07 18:49 | 48.11896 | 16.55456 | 614 ft | 9 kts | 329° |
| 2026-05-07 18:49 | 48.11946 | 16.55468 | 610 ft | 6 kts | 359° |
| 2026-05-07 18:49 | 48.11967 | 16.55425 | 612 ft | 5 kts | 292° |
| 2026-05-07 18:49 | 48.11978 | 16.55389 | 620 ft | 3 kts | 296° |
| 2026-05-07 18:50 | 48.11979 | 16.55386 | 620 ft | 0 kts | 296° |
| 2026-05-07 18:50 | 48.11979 | 16.55387 | 620 ft | 0 kts | 295° |
| 2026-05-07 18:50 | 48.11978 | 16.55389 | 620 ft | 0 kts | 295° |